sensor_id;sensor_type;location;lat;lon;timestamp;P1;P2;P0
80639;PMS5003;69992;60.170;24.692;2023-05-16T00:01:48;9;9;
80639;PMS5003;69992;60.170;24.692;2023-05-16T00:04:14;14;11;
80639;PMS5003;69992;60.170;24.692;2023-05-16T00:06:39;8;8;
80639;PMS5003;69992;60.170;24.692;2023-05-16T00:09:05;10;10;
80639;PMS5003;69992;60.170;24.692;2023-05-16T00:11:31;11;10;
80639;PMS5003;69992;60.170;24.692;2023-05-16T00:13:56;11;10;
80639;PMS5003;69992;60.170;24.692;2023-05-16T00:16:22;9;9;
80639;PMS5003;69992;60.170;24.692;2023-05-16T00:18:48;10;10;
80639;PMS5003;69992;60.170;24.692;2023-05-16T00:21:13;8;8;
80639;PMS5003;69992;60.170;24.692;2023-05-16T00:23:39;9;9;
80639;PMS5003;69992;60.170;24.692;2023-05-16T00:26:04;8;8;
80639;PMS5003;69992;60.170;24.692;2023-05-16T00:28:30;10;10;
80639;PMS5003;69992;60.170;24.692;2023-05-16T00:30:56;11;11;
80639;PMS5003;69992;60.170;24.692;2023-05-16T00:33:21;9;8;
80639;PMS5003;69992;60.170;24.692;2023-05-16T00:35:47;9;9;
80639;PMS5003;69992;60.170;24.692;2023-05-16T00:38:12;11;9;
80639;PMS5003;69992;60.170;24.692;2023-05-16T00:40:38;9;9;
80639;PMS5003;69992;60.170;24.692;2023-05-16T00:43:04;8;8;
80639;PMS5003;69992;60.170;24.692;2023-05-16T00:45:29;7;7;
80639;PMS5003;69992;60.170;24.692;2023-05-16T00:47:54;11;9;
80639;PMS5003;69992;60.170;24.692;2023-05-16T00:50:20;10;10;
80639;PMS5003;69992;60.170;24.692;2023-05-16T00:52:46;9;9;
80639;PMS5003;69992;60.170;24.692;2023-05-16T00:55:11;8;8;
80639;PMS5003;69992;60.170;24.692;2023-05-16T00:57:37;8;8;
80639;PMS5003;69992;60.170;24.692;2023-05-16T01:00:03;9;9;
80639;PMS5003;69992;60.170;24.692;2023-05-16T01:02:28;9;9;
80639;PMS5003;69992;60.170;24.692;2023-05-16T01:04:54;7;7;
80639;PMS5003;69992;60.170;24.692;2023-05-16T01:07:19;9;8;
80639;PMS5003;69992;60.170;24.692;2023-05-16T01:09:45;8;8;
80639;PMS5003;69992;60.170;24.692;2023-05-16T01:12:13;7;7;
80639;PMS5003;69992;60.170;24.692;2023-05-16T01:14:38;8;8;
80639;PMS5003;69992;60.170;24.692;2023-05-16T01:17:04;8;8;
80639;PMS5003;69992;60.170;24.692;2023-05-16T01:19:31;8;7;
80639;PMS5003;69992;60.170;24.692;2023-05-16T01:21:56;6;6;
80639;PMS5003;69992;60.170;24.692;2023-05-16T01:24:22;6;6;
80639;PMS5003;69992;60.170;24.692;2023-05-16T01:26:45;9;8;
80639;PMS5003;69992;60.170;24.692;2023-05-16T01:29:10;9;8;
80639;PMS5003;69992;60.170;24.692;2023-05-16T01:31:36;7;7;
80639;PMS5003;69992;60.170;24.692;2023-05-16T01:34:02;8;7;
80639;PMS5003;69992;60.170;24.692;2023-05-16T01:36:29;9;9;
80639;PMS5003;69992;60.170;24.692;2023-05-16T01:38:58;5;5;
80639;PMS5003;69992;60.170;24.692;2023-05-16T01:41:20;8;8;
80639;PMS5003;69992;60.170;24.692;2023-05-16T01:43:45;7;7;
80639;PMS5003;69992;60.170;24.692;2023-05-16T01:46:11;7;7;
80639;PMS5003;69992;60.170;24.692;2023-05-16T01:48:38;7;6;
80639;PMS5003;69992;60.170;24.692;2023-05-16T01:51:01;8;8;
80639;PMS5003;69992;60.170;24.692;2023-05-16T01:53:28;6;6;
80639;PMS5003;69992;60.170;24.692;2023-05-16T01:55:55;6;6;
80639;PMS5003;69992;60.170;24.692;2023-05-16T01:58:19;6;6;
80639;PMS5003;69992;60.170;24.692;2023-05-16T02:00:44;8;8;
80639;PMS5003;69992;60.170;24.692;2023-05-16T02:03:09;9;6;
80639;PMS5003;69992;60.170;24.692;2023-05-16T02:05:35;5;5;
80639;PMS5003;69992;60.170;24.692;2023-05-16T02:08:00;6;6;
80639;PMS5003;69992;60.170;24.692;2023-05-16T02:10:26;8;8;
80639;PMS5003;69992;60.170;24.692;2023-05-16T02:12:52;8;8;
80639;PMS5003;69992;60.170;24.692;2023-05-16T02:15:17;5;5;
80639;PMS5003;69992;60.170;24.692;2023-05-16T02:17:43;7;7;
80639;PMS5003;69992;60.170;24.692;2023-05-16T02:20:09;8;7;
80639;PMS5003;69992;60.170;24.692;2023-05-16T02:22:34;6;6;
80639;PMS5003;69992;60.170;24.692;2023-05-16T02:25:00;5;5;
80639;PMS5003;69992;60.170;24.692;2023-05-16T02:27:26;6;6;
80639;PMS5003;69992;60.170;24.692;2023-05-16T02:29:51;8;7;
80639;PMS5003;69992;60.170;24.692;2023-05-16T02:32:17;6;6;
80639;PMS5003;69992;60.170;24.692;2023-05-16T02:34:42;6;6;
80639;PMS5003;69992;60.170;24.692;2023-05-16T02:37:08;5;5;
80639;PMS5003;69992;60.170;24.692;2023-05-16T02:39:34;6;6;
80639;PMS5003;69992;60.170;24.692;2023-05-16T02:41:59;7;7;
80639;PMS5003;69992;60.170;24.692;2023-05-16T02:44:25;6;6;
80639;PMS5003;69992;60.170;24.692;2023-05-16T02:46:51;6;6;
80639;PMS5003;69992;60.170;24.692;2023-05-16T02:49:16;6;6;
80639;PMS5003;69992;60.170;24.692;2023-05-16T02:51:42;6;6;
80639;PMS5003;69992;60.170;24.692;2023-05-16T02:54:07;5;5;
80639;PMS5003;69992;60.170;24.692;2023-05-16T02:56:33;6;5;
80639;PMS5003;69992;60.170;24.692;2023-05-16T02:58:58;5;5;
80639;PMS5003;69992;60.170;24.692;2023-05-16T03:01:24;6;6;
80639;PMS5003;69992;60.170;24.692;2023-05-16T03:03:50;6;6;
80639;PMS5003;69992;60.170;24.692;2023-05-16T03:06:15;6;6;
80639;PMS5003;69992;60.170;24.692;2023-05-16T03:08:41;5;5;
80639;PMS5003;69992;60.170;24.692;2023-05-16T03:11:06;4;4;
80639;PMS5003;69992;60.170;24.692;2023-05-16T03:13:32;7;7;
80639;PMS5003;69992;60.170;24.692;2023-05-16T03:15:58;4;4;
80639;PMS5003;69992;60.170;24.692;2023-05-16T03:18:23;7;7;
80639;PMS5003;69992;60.170;24.692;2023-05-16T03:20:49;6;6;
80639;PMS5003;69992;60.170;24.692;2023-05-16T03:23:14;4;4;
80639;PMS5003;69992;60.170;24.692;2023-05-16T03:25:40;6;5;
80639;PMS5003;69992;60.170;24.692;2023-05-16T03:28:06;6;5;
80639;PMS5003;69992;60.170;24.692;2023-05-16T03:30:31;6;6;
80639;PMS5003;69992;60.170;24.692;2023-05-16T03:32:57;5;4;
80639;PMS5003;69992;60.170;24.692;2023-05-16T03:35:22;7;7;
80639;PMS5003;69992;60.170;24.692;2023-05-16T03:37:48;7;7;
80639;PMS5003;69992;60.170;24.692;2023-05-16T03:40:13;5;5;
80639;PMS5003;69992;60.170;24.692;2023-05-16T03:42:39;5;5;
80639;PMS5003;69992;60.170;24.692;2023-05-16T03:45:05;6;6;
80639;PMS5003;69992;60.170;24.692;2023-05-16T03:47:30;6;6;
80639;PMS5003;69992;60.170;24.692;2023-05-16T03:49:55;6;6;
80639;PMS5003;69992;60.170;24.692;2023-05-16T03:52:21;5;5;
80639;PMS5003;69992;60.170;24.692;2023-05-16T03:54:46;6;6;
80639;PMS5003;69992;60.170;24.692;2023-05-16T03:57:12;6;6;
80639;PMS5003;69992;60.170;24.692;2023-05-16T03:59:37;7;7;
80639;PMS5003;69992;60.170;24.692;2023-05-16T04:02:03;5;5;
80639;PMS5003;69992;60.170;24.692;2023-05-16T04:04:29;7;6;
80639;PMS5003;69992;60.170;24.692;2023-05-16T04:06:54;5;5;
80639;PMS5003;69992;60.170;24.692;2023-05-16T04:09:20;6;6;
80639;PMS5003;69992;60.170;24.692;2023-05-16T04:11:45;5;5;
80639;PMS5003;69992;60.170;24.692;2023-05-16T04:14:11;4;4;
80639;PMS5003;69992;60.170;24.692;2023-05-16T04:16:36;4;4;
80639;PMS5003;69992;60.170;24.692;2023-05-16T04:19:02;6;6;
80639;PMS5003;69992;60.170;24.692;2023-05-16T04:21:27;5;5;
80639;PMS5003;69992;60.170;24.692;2023-05-16T04:23:53;6;6;
80639;PMS5003;69992;60.170;24.692;2023-05-16T04:26:19;5;5;
80639;PMS5003;69992;60.170;24.692;2023-05-16T04:28:44;6;6;
80639;PMS5003;69992;60.170;24.692;2023-05-16T04:31:10;5;5;
80639;PMS5003;69992;60.170;24.692;2023-05-16T04:33:35;6;6;
80639;PMS5003;69992;60.170;24.692;2023-05-16T04:36:01;5;5;
80639;PMS5003;69992;60.170;24.692;2023-05-16T04:38:26;6;6;
80639;PMS5003;69992;60.170;24.692;2023-05-16T04:40:52;5;5;
80639;PMS5003;69992;60.170;24.692;2023-05-16T04:43:18;6;6;
80639;PMS5003;69992;60.170;24.692;2023-05-16T04:45:43;5;5;
80639;PMS5003;69992;60.170;24.692;2023-05-16T04:48:09;6;5;
80639;PMS5003;69992;60.170;24.692;2023-05-16T04:50:34;7;5;
80639;PMS5003;69992;60.170;24.692;2023-05-16T04:53:00;6;6;
80639;PMS5003;69992;60.170;24.692;2023-05-16T04:55:26;6;6;
80639;PMS5003;69992;60.170;24.692;2023-05-16T04:57:51;4;4;
80639;PMS5003;69992;60.170;24.692;2023-05-16T05:00:17;6;6;
80639;PMS5003;69992;60.170;24.692;2023-05-16T05:02:42;7;7;
80639;PMS5003;69992;60.170;24.692;2023-05-16T05:05:08;5;5;
80639;PMS5003;69992;60.170;24.692;2023-05-16T05:07:34;5;5;
80639;PMS5003;69992;60.170;24.692;2023-05-16T05:09:59;5;5;
80639;PMS5003;69992;60.170;24.692;2023-05-16T05:12:25;7;7;
80639;PMS5003;69992;60.170;24.692;2023-05-16T05:14:50;6;6;
80639;PMS5003;69992;60.170;24.692;2023-05-16T05:17:16;6;6;
80639;PMS5003;69992;60.170;24.692;2023-05-16T05:19:41;7;6;
80639;PMS5003;69992;60.170;24.692;2023-05-16T05:22:07;6;5;
80639;PMS5003;69992;60.170;24.692;2023-05-16T05:24:33;4;4;
80639;PMS5003;69992;60.170;24.692;2023-05-16T05:26:58;6;6;
80639;PMS5003;69992;60.170;24.692;2023-05-16T05:29:24;6;6;
80639;PMS5003;69992;60.170;24.692;2023-05-16T05:31:49;7;7;
80639;PMS5003;69992;60.170;24.692;2023-05-16T05:34:15;9;9;
80639;PMS5003;69992;60.170;24.692;2023-05-16T05:36:40;53;53;
80639;PMS5003;69992;60.170;24.692;2023-05-16T05:39:06;13;13;
80639;PMS5003;69992;60.170;24.692;2023-05-16T05:41:31;6;6;
80639;PMS5003;69992;60.170;24.692;2023-05-16T05:43:57;8;8;
80639;PMS5003;69992;60.170;24.692;2023-05-16T05:46:22;6;6;
80639;PMS5003;69992;60.170;24.692;2023-05-16T05:48:48;6;6;
80639;PMS5003;69992;60.170;24.692;2023-05-16T05:51:13;5;5;
80639;PMS5003;69992;60.170;24.692;2023-05-16T05:53:39;7;7;
80639;PMS5003;69992;60.170;24.692;2023-05-16T05:56:05;7;7;
80639;PMS5003;69992;60.170;24.692;2023-05-16T05:58:30;5;5;
80639;PMS5003;69992;60.170;24.692;2023-05-16T06:00:56;7;7;
80639;PMS5003;69992;60.170;24.692;2023-05-16T06:03:21;8;6;
80639;PMS5003;69992;60.170;24.692;2023-05-16T06:05:47;6;6;
80639;PMS5003;69992;60.170;24.692;2023-05-16T06:08:13;7;7;
80639;PMS5003;69992;60.170;24.692;2023-05-16T06:10:38;8;8;
80639;PMS5003;69992;60.170;24.692;2023-05-16T06:13:04;7;6;
80639;PMS5003;69992;60.170;24.692;2023-05-16T06:15:30;5;5;
80639;PMS5003;69992;60.170;24.692;2023-05-16T06:17:55;7;7;
80639;PMS5003;69992;60.170;24.692;2023-05-16T06:20:21;6;6;
80639;PMS5003;69992;60.170;24.692;2023-05-16T06:22:46;7;7;
80639;PMS5003;69992;60.170;24.692;2023-05-16T06:25:12;7;7;
80639;PMS5003;69992;60.170;24.692;2023-05-16T06:27:38;10;9;
80639;PMS5003;69992;60.170;24.692;2023-05-16T06:30:04;7;7;
80639;PMS5003;69992;60.170;24.692;2023-05-16T06:32:29;8;8;
80639;PMS5003;69992;60.170;24.692;2023-05-16T06:34:55;8;8;
80639;PMS5003;69992;60.170;24.692;2023-05-16T06:37:20;11;9;
80639;PMS5003;69992;60.170;24.692;2023-05-16T06:39:45;9;7;
80639;PMS5003;69992;60.170;24.692;2023-05-16T06:42:11;9;9;
80639;PMS5003;69992;60.170;24.692;2023-05-16T06:44:37;9;8;
80639;PMS5003;69992;60.170;24.692;2023-05-16T06:47:02;6;6;
80639;PMS5003;69992;60.170;24.692;2023-05-16T06:49:28;6;6;
80639;PMS5003;69992;60.170;24.692;2023-05-16T06:51:53;9;9;
80639;PMS5003;69992;60.170;24.692;2023-05-16T06:54:19;9;9;
80639;PMS5003;69992;60.170;24.692;2023-05-16T06:56:45;8;8;
80639;PMS5003;69992;60.170;24.692;2023-05-16T06:59:10;9;8;
80639;PMS5003;69992;60.170;24.692;2023-05-16T07:01:36;6;6;
80639;PMS5003;69992;60.170;24.692;2023-05-16T07:04:01;8;8;
80639;PMS5003;69992;60.170;24.692;2023-05-16T07:06:27;8;8;
80639;PMS5003;69992;60.170;24.692;2023-05-16T07:08:53;8;8;
80639;PMS5003;69992;60.170;24.692;2023-05-16T07:11:18;8;8;
80639;PMS5003;69992;60.170;24.692;2023-05-16T07:13:44;10;9;
80639;PMS5003;69992;60.170;24.692;2023-05-16T07:16:09;10;9;
80639;PMS5003;69992;60.170;24.692;2023-05-16T07:18:35;9;9;
80639;PMS5003;69992;60.170;24.692;2023-05-16T07:21:01;9;9;
80639;PMS5003;69992;60.170;24.692;2023-05-16T07:23:26;10;10;
80639;PMS5003;69992;60.170;24.692;2023-05-16T07:25:52;10;10;
80639;PMS5003;69992;60.170;24.692;2023-05-16T07:28:18;10;9;
80639;PMS5003;69992;60.170;24.692;2023-05-16T07:30:43;9;9;
80639;PMS5003;69992;60.170;24.692;2023-05-16T07:33:09;11;11;
80639;PMS5003;69992;60.170;24.692;2023-05-16T07:35:34;9;8;
80639;PMS5003;69992;60.170;24.692;2023-05-16T07:38:00;10;10;
80639;PMS5003;69992;60.170;24.692;2023-05-16T07:40:26;9;9;
80639;PMS5003;69992;60.170;24.692;2023-05-16T07:42:51;11;10;
80639;PMS5003;69992;60.170;24.692;2023-05-16T07:45:17;12;11;
80639;PMS5003;69992;60.170;24.692;2023-05-16T07:47:42;9;9;
80639;PMS5003;69992;60.170;24.692;2023-05-16T07:50:09;11;11;
80639;PMS5003;69992;60.170;24.692;2023-05-16T07:52:34;10;10;
80639;PMS5003;69992;60.170;24.692;2023-05-16T07:54:59;11;10;
80639;PMS5003;69992;60.170;24.692;2023-05-16T07:57:25;10;10;
80639;PMS5003;69992;60.170;24.692;2023-05-16T07:59:51;13;12;
80639;PMS5003;69992;60.170;24.692;2023-05-16T08:02:16;10;10;
80639;PMS5003;69992;60.170;24.692;2023-05-16T08:04:42;12;10;
80639;PMS5003;69992;60.170;24.692;2023-05-16T08:07:08;12;11;
80639;PMS5003;69992;60.170;24.692;2023-05-16T08:09:33;11;11;
80639;PMS5003;69992;60.170;24.692;2023-05-16T08:11:59;11;11;
80639;PMS5003;69992;60.170;24.692;2023-05-16T08:14:24;11;11;
80639;PMS5003;69992;60.170;24.692;2023-05-16T08:16:50;10;10;
80639;PMS5003;69992;60.170;24.692;2023-05-16T08:19:15;11;11;
80639;PMS5003;69992;60.170;24.692;2023-05-16T08:21:41;12;12;
80639;PMS5003;69992;60.170;24.692;2023-05-16T08:24:06;12;12;
80639;PMS5003;69992;60.170;24.692;2023-05-16T08:26:32;12;12;
80639;PMS5003;69992;60.170;24.692;2023-05-16T08:28:57;11;10;
80639;PMS5003;69992;60.170;24.692;2023-05-16T08:31:23;9;9;
80639;PMS5003;69992;60.170;24.692;2023-05-16T08:33:48;10;10;
80639;PMS5003;69992;60.170;24.692;2023-05-16T08:36:14;12;12;
80639;PMS5003;69992;60.170;24.692;2023-05-16T08:38:39;13;12;
80639;PMS5003;69992;60.170;24.692;2023-05-16T08:41:05;15;13;
80639;PMS5003;69992;60.170;24.692;2023-05-16T08:43:30;9;9;
80639;PMS5003;69992;60.170;24.692;2023-05-16T08:45:56;13;13;
80639;PMS5003;69992;60.170;24.692;2023-05-16T08:48:22;11;11;
80639;PMS5003;69992;60.170;24.692;2023-05-16T08:50:47;10;10;
80639;PMS5003;69992;60.170;24.692;2023-05-16T08:53:13;10;10;
80639;PMS5003;69992;60.170;24.692;2023-05-16T08:55:39;11;11;
80639;PMS5003;69992;60.170;24.692;2023-05-16T08:58:04;10;10;
80639;PMS5003;69992;60.170;24.692;2023-05-16T09:00:30;12;12;
80639;PMS5003;69992;60.170;24.692;2023-05-16T09:02:55;15;13;
80639;PMS5003;69992;60.170;24.692;2023-05-16T09:05:21;13;12;
80639;PMS5003;69992;60.170;24.692;2023-05-16T09:07:47;9;9;
80639;PMS5003;69992;60.170;24.692;2023-05-16T09:10:12;11;10;
80639;PMS5003;69992;60.170;24.692;2023-05-16T09:12:38;12;12;
80639;PMS5003;69992;60.170;24.692;2023-05-16T09:15:05;14;14;
80639;PMS5003;69992;60.170;24.692;2023-05-16T09:17:33;13;12;
80639;PMS5003;69992;60.170;24.692;2023-05-16T09:19:55;12;12;
80639;PMS5003;69992;60.170;24.692;2023-05-16T09:22:21;14;12;
80639;PMS5003;69992;60.170;24.692;2023-05-16T09:24:46;13;13;
80639;PMS5003;69992;60.170;24.692;2023-05-16T09:27:13;19;16;
80639;PMS5003;69992;60.170;24.692;2023-05-16T09:29:38;13;13;
80639;PMS5003;69992;60.170;24.692;2023-05-16T09:32:04;12;12;
80639;PMS5003;69992;60.170;24.692;2023-05-16T09:34:28;13;13;
80639;PMS5003;69992;60.170;24.692;2023-05-16T09:36:54;14;13;
80639;PMS5003;69992;60.170;24.692;2023-05-16T09:39:19;17;16;
80639;PMS5003;69992;60.170;24.692;2023-05-16T09:41:45;16;15;
80639;PMS5003;69992;60.170;24.692;2023-05-16T09:44:10;14;14;
80639;PMS5003;69992;60.170;24.692;2023-05-16T09:46:36;18;15;
80639;PMS5003;69992;60.170;24.692;2023-05-16T09:49:02;13;13;
80639;PMS5003;69992;60.170;24.692;2023-05-16T09:51:27;19;16;
80639;PMS5003;69992;60.170;24.692;2023-05-16T09:53:52;15;13;
80639;PMS5003;69992;60.170;24.692;2023-05-16T09:56:17;12;12;
80639;PMS5003;69992;60.170;24.692;2023-05-16T09:58:43;13;13;
80639;PMS5003;69992;60.170;24.692;2023-05-16T10:01:09;17;16;
80639;PMS5003;69992;60.170;24.692;2023-05-16T10:03:35;12;12;
80639;PMS5003;69992;60.170;24.692;2023-05-16T10:05:59;14;14;
80639;PMS5003;69992;60.170;24.692;2023-05-16T10:08:25;16;13;
80639;PMS5003;69992;60.170;24.692;2023-05-16T10:10:52;12;11;
80639;PMS5003;69992;60.170;24.692;2023-05-16T10:13:18;17;14;
80639;PMS5003;69992;60.170;24.692;2023-05-16T10:15:42;14;14;
80639;PMS5003;69992;60.170;24.692;2023-05-16T10:18:08;16;16;
80639;PMS5003;69992;60.170;24.692;2023-05-16T10:20:34;12;12;
80639;PMS5003;69992;60.170;24.692;2023-05-16T10:22:59;13;12;
80639;PMS5003;69992;60.170;24.692;2023-05-16T10:25:26;12;12;
80639;PMS5003;69992;60.170;24.692;2023-05-16T10:27:50;13;13;
80639;PMS5003;69992;60.170;24.692;2023-05-16T10:30:16;16;13;
80639;PMS5003;69992;60.170;24.692;2023-05-16T10:32:40;13;13;
80639;PMS5003;69992;60.170;24.692;2023-05-16T10:35:06;13;13;
80639;PMS5003;69992;60.170;24.692;2023-05-16T10:37:32;17;16;
80639;PMS5003;69992;60.170;24.692;2023-05-16T10:39:57;18;14;
80639;PMS5003;69992;60.170;24.692;2023-05-16T10:42:22;13;13;
80639;PMS5003;69992;60.170;24.692;2023-05-16T10:44:48;13;13;
80639;PMS5003;69992;60.170;24.692;2023-05-16T10:47:17;14;13;
80639;PMS5003;69992;60.170;24.692;2023-05-16T10:49:39;12;12;
80639;PMS5003;69992;60.170;24.692;2023-05-16T10:52:05;16;15;
80639;PMS5003;69992;60.170;24.692;2023-05-16T10:54:34;14;14;
80639;PMS5003;69992;60.170;24.692;2023-05-16T10:56:55;13;13;
80639;PMS5003;69992;60.170;24.692;2023-05-16T10:59:21;14;14;
80639;PMS5003;69992;60.170;24.692;2023-05-16T11:01:46;13;13;
80639;PMS5003;69992;60.170;24.692;2023-05-16T11:04:12;11;11;
80639;PMS5003;69992;60.170;24.692;2023-05-16T11:09:03;12;12;
80639;PMS5003;69992;60.170;24.692;2023-05-16T11:13:54;16;14;
80639;PMS5003;69992;60.170;24.692;2023-05-16T11:16:26;16;16;
80639;PMS5003;69992;60.170;24.692;2023-05-16T11:18:48;15;15;
80639;PMS5003;69992;60.170;24.692;2023-05-16T11:21:10;14;14;
80639;PMS5003;69992;60.170;24.692;2023-05-16T11:23:36;16;16;
80639;PMS5003;69992;60.170;24.692;2023-05-16T11:26:01;14;14;
80639;PMS5003;69992;60.170;24.692;2023-05-16T11:28:27;17;16;
80639;PMS5003;69992;60.170;24.692;2023-05-16T11:30:53;20;19;
80639;PMS5003;69992;60.170;24.692;2023-05-16T11:33:18;17;17;
80639;PMS5003;69992;60.170;24.692;2023-05-16T11:35:44;16;16;
80639;PMS5003;69992;60.170;24.692;2023-05-16T11:38:12;16;15;
80639;PMS5003;69992;60.170;24.692;2023-05-16T11:40:35;17;17;
80639;PMS5003;69992;60.170;24.692;2023-05-16T11:43:00;16;16;
80639;PMS5003;69992;60.170;24.692;2023-05-16T11:45:26;17;16;
80639;PMS5003;69992;60.170;24.692;2023-05-16T11:47:51;17;16;
80639;PMS5003;69992;60.170;24.692;2023-05-16T11:50:18;14;14;
80639;PMS5003;69992;60.170;24.692;2023-05-16T11:52:43;14;14;
80639;PMS5003;69992;60.170;24.692;2023-05-16T11:55:08;18;15;
80639;PMS5003;69992;60.170;24.692;2023-05-16T11:57:34;13;13;
80639;PMS5003;69992;60.170;24.692;2023-05-16T12:00:01;16;15;
80639;PMS5003;69992;60.170;24.692;2023-05-16T12:02:25;13;13;
80639;PMS5003;69992;60.170;24.692;2023-05-16T12:04:50;15;15;
80639;PMS5003;69992;60.170;24.692;2023-05-16T12:07:16;14;14;
80639;PMS5003;69992;60.170;24.692;2023-05-16T12:09:41;15;15;
80639;PMS5003;69992;60.170;24.692;2023-05-16T12:12:07;15;15;
80639;PMS5003;69992;60.170;24.692;2023-05-16T12:14:33;14;13;
80639;PMS5003;69992;60.170;24.692;2023-05-16T12:16:58;15;15;
80639;PMS5003;69992;60.170;24.692;2023-05-16T12:19:24;22;18;
80639;PMS5003;69992;60.170;24.692;2023-05-16T12:21:51;17;16;
80639;PMS5003;69992;60.170;24.692;2023-05-16T12:24:15;15;15;
80639;PMS5003;69992;60.170;24.692;2023-05-16T12:26:41;18;18;
80639;PMS5003;69992;60.170;24.692;2023-05-16T12:29:06;17;16;
80639;PMS5003;69992;60.170;24.692;2023-05-16T12:31:34;14;13;
80639;PMS5003;69992;60.170;24.692;2023-05-16T12:33:57;20;20;
80639;PMS5003;69992;60.170;24.692;2023-05-16T12:36:23;18;18;
80639;PMS5003;69992;60.170;24.692;2023-05-16T12:38:48;19;18;
80639;PMS5003;69992;60.170;24.692;2023-05-16T12:41:16;22;21;
80639;PMS5003;69992;60.170;24.692;2023-05-16T12:43:39;15;14;
80639;PMS5003;69992;60.170;24.692;2023-05-16T12:46:08;20;20;
80639;PMS5003;69992;60.170;24.692;2023-05-16T12:48:31;18;15;
80639;PMS5003;69992;60.170;24.692;2023-05-16T12:50:55;20;18;
80639;PMS5003;69992;60.170;24.692;2023-05-16T12:53:20;18;16;
80639;PMS5003;69992;60.170;24.692;2023-05-16T12:55:46;18;17;
80639;PMS5003;69992;60.170;24.692;2023-05-16T12:58:12;20;19;
80639;PMS5003;69992;60.170;24.692;2023-05-16T13:00:37;17;16;
80639;PMS5003;69992;60.170;24.692;2023-05-16T13:03:03;15;15;
80639;PMS5003;69992;60.170;24.692;2023-05-16T13:05:28;17;16;
80639;PMS5003;69992;60.170;24.692;2023-05-16T13:07:54;17;16;
80639;PMS5003;69992;60.170;24.692;2023-05-16T13:10:19;17;17;
80639;PMS5003;69992;60.170;24.692;2023-05-16T13:12:45;17;16;
80639;PMS5003;69992;60.170;24.692;2023-05-16T13:15:10;21;20;
80639;PMS5003;69992;60.170;24.692;2023-05-16T13:17:37;16;16;
80639;PMS5003;69992;60.170;24.692;2023-05-16T13:20:02;19;17;
80639;PMS5003;69992;60.170;24.692;2023-05-16T13:22:27;19;19;
80639;PMS5003;69992;60.170;24.692;2023-05-16T13:24:53;18;17;
80639;PMS5003;69992;60.170;24.692;2023-05-16T13:27:19;21;19;
80639;PMS5003;69992;60.170;24.692;2023-05-16T13:29:44;17;16;
80639;PMS5003;69992;60.170;24.692;2023-05-16T13:32:09;17;16;
80639;PMS5003;69992;60.170;24.692;2023-05-16T13:34:35;20;17;
80639;PMS5003;69992;60.170;24.692;2023-05-16T13:37:01;18;15;
80639;PMS5003;69992;60.170;24.692;2023-05-16T13:39:26;16;16;
80639;PMS5003;69992;60.170;24.692;2023-05-16T13:41:52;12;12;
80639;PMS5003;69992;60.170;24.692;2023-05-16T13:44:17;15;15;
80639;PMS5003;69992;60.170;24.692;2023-05-16T13:46:43;14;14;
80639;PMS5003;69992;60.170;24.692;2023-05-16T13:49:08;18;17;
80639;PMS5003;69992;60.170;24.692;2023-05-16T13:51:34;16;16;
80639;PMS5003;69992;60.170;24.692;2023-05-16T13:54:00;18;18;
80639;PMS5003;69992;60.170;24.692;2023-05-16T13:56:26;14;14;
80639;PMS5003;69992;60.170;24.692;2023-05-16T13:58:51;19;19;
80639;PMS5003;69992;60.170;24.692;2023-05-16T14:01:17;15;15;
80639;PMS5003;69992;60.170;24.692;2023-05-16T14:03:43;15;15;
80639;PMS5003;69992;60.170;24.692;2023-05-16T14:06:08;18;17;
80639;PMS5003;69992;60.170;24.692;2023-05-16T14:08:34;21;15;
80639;PMS5003;69992;60.170;24.692;2023-05-16T14:11:00;18;15;
80639;PMS5003;69992;60.170;24.692;2023-05-16T14:13:25;15;14;
80639;PMS5003;69992;60.170;24.692;2023-05-16T14:15:51;15;15;
80639;PMS5003;69992;60.170;24.692;2023-05-16T14:18:16;15;12;
80639;PMS5003;69992;60.170;24.692;2023-05-16T14:20:42;16;16;
80639;PMS5003;69992;60.170;24.692;2023-05-16T14:23:08;15;15;
80639;PMS5003;69992;60.170;24.692;2023-05-16T14:25:33;16;15;
80639;PMS5003;69992;60.170;24.692;2023-05-16T14:27:59;16;15;
80639;PMS5003;69992;60.170;24.692;2023-05-16T14:30:24;13;12;
80639;PMS5003;69992;60.170;24.692;2023-05-16T14:32:50;14;13;
80639;PMS5003;69992;60.170;24.692;2023-05-16T14:35:15;16;15;
80639;PMS5003;69992;60.170;24.692;2023-05-16T14:37:41;15;14;
80639;PMS5003;69992;60.170;24.692;2023-05-16T14:40:07;15;14;
80639;PMS5003;69992;60.170;24.692;2023-05-16T14:42:32;13;13;
80639;PMS5003;69992;60.170;24.692;2023-05-16T14:44:58;12;11;
80639;PMS5003;69992;60.170;24.692;2023-05-16T14:47:23;18;15;
80639;PMS5003;69992;60.170;24.692;2023-05-16T14:49:49;12;12;
80639;PMS5003;69992;60.170;24.692;2023-05-16T14:52:15;12;12;
80639;PMS5003;69992;60.170;24.692;2023-05-16T14:54:40;13;13;
80639;PMS5003;69992;60.170;24.692;2023-05-16T14:57:06;14;14;
80639;PMS5003;69992;60.170;24.692;2023-05-16T14:59:31;13;13;
80639;PMS5003;69992;60.170;24.692;2023-05-16T15:01:57;12;11;
80639;PMS5003;69992;60.170;24.692;2023-05-16T15:04:23;13;13;
80639;PMS5003;69992;60.170;24.692;2023-05-16T15:06:48;12;12;
80639;PMS5003;69992;60.170;24.692;2023-05-16T15:09:13;18;15;
80639;PMS5003;69992;60.170;24.692;2023-05-16T15:11:39;14;12;
80639;PMS5003;69992;60.170;24.692;2023-05-16T15:14:05;11;11;
80639;PMS5003;69992;60.170;24.692;2023-05-16T15:16:30;14;13;
80639;PMS5003;69992;60.170;24.692;2023-05-16T15:18:56;14;14;
80639;PMS5003;69992;60.170;24.692;2023-05-16T15:21:22;15;14;
80639;PMS5003;69992;60.170;24.692;2023-05-16T15:23:47;13;13;
80639;PMS5003;69992;60.170;24.692;2023-05-16T15:26:12;16;15;
80639;PMS5003;69992;60.170;24.692;2023-05-16T15:28:38;13;12;
80639;PMS5003;69992;60.170;24.692;2023-05-16T15:31:04;14;14;
80639;PMS5003;69992;60.170;24.692;2023-05-16T15:33:29;15;14;
80639;PMS5003;69992;60.170;24.692;2023-05-16T15:35:55;14;14;
80639;PMS5003;69992;60.170;24.692;2023-05-16T15:38:21;15;15;
80639;PMS5003;69992;60.170;24.692;2023-05-16T15:40:46;16;15;
80639;PMS5003;69992;60.170;24.692;2023-05-16T15:43:12;21;18;
80639;PMS5003;69992;60.170;24.692;2023-05-16T15:45:37;15;15;
80639;PMS5003;69992;60.170;24.692;2023-05-16T15:48:03;16;16;
80639;PMS5003;69992;60.170;24.692;2023-05-16T15:50:28;14;14;
80639;PMS5003;69992;60.170;24.692;2023-05-16T15:52:53;16;12;
80639;PMS5003;69992;60.170;24.692;2023-05-16T15:55:19;15;15;
80639;PMS5003;69992;60.170;24.692;2023-05-16T15:57:45;18;16;
80639;PMS5003;69992;60.170;24.692;2023-05-16T16:00:11;16;15;
80639;PMS5003;69992;60.170;24.692;2023-05-16T16:02:36;16;15;
80639;PMS5003;69992;60.170;24.692;2023-05-16T16:05:02;18;18;
80639;PMS5003;69992;60.170;24.692;2023-05-16T16:07:27;17;16;
80639;PMS5003;69992;60.170;24.692;2023-05-16T16:09:52;15;15;